createdAt,value
2022-10-17T00:01:21.899Z,20.40
2022-10-17T00:03:50.290Z,20.40
2022-10-17T00:06:18.739Z,20.37
2022-10-17T00:08:47.362Z,20.33
2022-10-17T00:11:19.266Z,20.32
2022-10-17T00:13:49.411Z,20.27
2022-10-17T00:16:26.174Z,20.27
2022-10-17T00:18:54.787Z,20.25
2022-10-17T00:21:24.119Z,20.23
2022-10-17T00:23:52.600Z,20.21
2022-10-17T00:26:24.127Z,20.19
2022-10-17T00:28:54.461Z,20.19
2022-10-17T00:31:24.291Z,20.13
2022-10-17T00:33:53.524Z,20.12
2022-10-17T00:36:25.415Z,20.12
2022-10-17T00:39:02.525Z,20.12
2022-10-17T00:41:34.678Z,20.08
2022-10-17T00:44:06.848Z,20.01
2022-10-17T00:46:37.491Z,19.91
2022-10-17T00:49:09.631Z,19.86
2022-10-17T00:51:46.506Z,19.79
2022-10-17T00:54:17.541Z,19.72
2022-10-17T00:56:49.205Z,19.65
2022-10-17T00:59:19.523Z,19.63
2022-10-17T01:02:01.225Z,19.58
2022-10-17T01:04:29.575Z,19.53
2022-10-17T01:06:57.865Z,19.49
2022-10-17T01:09:27.785Z,19.45
2022-10-17T01:12:25.430Z,19.42
2022-10-17T01:15:15.356Z,19.34
2022-10-17T01:17:49.719Z,19.31
2022-10-17T01:20:21.065Z,19.26
2022-10-17T01:22:57.823Z,19.24
2022-10-17T01:26:04.175Z,19.23
2022-10-17T01:28:46.901Z,19.19
2022-10-17T01:31:25.266Z,19.16
2022-10-17T01:34:19.047Z,19.11
2022-10-17T01:36:55.994Z,19.09
2022-10-17T01:39:53.560Z,19.04
2022-10-17T01:42:50.360Z,18.95
2022-10-17T01:45:43.144Z,18.88
2022-10-17T01:48:21.180Z,18.87
2022-10-17T01:50:59.938Z,18.83
2022-10-17T01:53:36.730Z,18.78
2022-10-17T01:56:10.520Z,18.73
2022-10-17T01:58:47.003Z,18.73
2022-10-17T02:01:16.204Z,18.71
2022-10-17T02:03:47.640Z,18.70
2022-10-17T02:06:15.964Z,18.66
2022-10-17T02:08:47.274Z,18.61
2022-10-17T02:11:19.961Z,18.57
2022-10-17T02:14:02.896Z,18.56
2022-10-17T02:16:40.860Z,18.52
2022-10-17T02:19:26.997Z,18.49
2022-10-17T02:22:10.199Z,18.45
2022-10-17T02:24:50.359Z,18.42
2022-10-17T02:27:29.443Z,18.43
2022-10-17T02:30:04.921Z,18.41
2022-10-17T02:32:46.722Z,18.38
2022-10-17T02:35:21.409Z,18.37
2022-10-17T02:37:52.414Z,18.35
2022-10-17T02:40:25.402Z,18.34
2022-10-17T02:42:56.547Z,18.31
2022-10-17T02:45:27.800Z,18.28
2022-10-17T02:48:17.865Z,18.25
2022-10-17T02:50:53.575Z,18.21
2022-10-17T02:53:31.830Z,18.14
2022-10-17T02:56:04.120Z,18.11
2022-10-17T02:58:36.919Z,18.07
2022-10-17T03:01:06.247Z,18.01
2022-10-17T03:03:34.640Z,17.95
2022-10-17T03:06:03.150Z,17.89
2022-10-17T03:08:31.605Z,17.85
2022-10-17T03:10:59.960Z,17.82
2022-10-17T03:13:30.284Z,17.77
2022-10-17T03:15:58.745Z,17.73
2022-10-17T03:18:27.158Z,17.67
2022-10-17T03:20:55.479Z,17.63
2022-10-17T03:23:23.800Z,17.60
2022-10-17T03:25:52.120Z,17.55
2022-10-17T03:28:20.442Z,17.50
2022-10-17T03:30:49.085Z,17.46
2022-10-17T03:33:17.394Z,17.43
2022-10-17T03:35:45.777Z,17.38
2022-10-17T03:38:14.193Z,17.34
2022-10-17T03:40:42.520Z,17.29
2022-10-17T03:43:12.915Z,17.24
2022-10-17T03:45:41.240Z,17.17
2022-10-17T03:48:09.615Z,17.08
2022-10-17T03:50:38.005Z,17.03
2022-10-17T03:53:06.371Z,16.99
2022-10-17T03:55:35.274Z,16.98
2022-10-17T03:58:03.641Z,16.94
2022-10-17T04:00:31.975Z,16.93
2022-10-17T04:03:00.280Z,16.91
2022-10-17T04:05:28.560Z,16.87
2022-10-17T04:07:58.718Z,16.84
2022-10-17T04:10:29.400Z,16.80
2022-10-17T04:12:57.725Z,16.75
2022-10-17T04:15:26.041Z,16.74
2022-10-17T04:17:54.424Z,16.69
2022-10-17T04:20:23.222Z,16.66
2022-10-17T04:22:51.625Z,16.60
2022-10-17T04:25:19.968Z,16.60
2022-10-17T04:27:50.026Z,16.56
2022-10-17T04:30:18.835Z,16.52
2022-10-17T04:32:47.190Z,16.49
2022-10-17T04:35:15.626Z,16.47
2022-10-17T04:37:43.943Z,16.44
2022-10-17T04:40:12.598Z,16.40
2022-10-17T04:42:40.921Z,16.35
2022-10-17T04:45:09.720Z,16.30
2022-10-17T04:47:37.993Z,16.27
2022-10-17T04:50:07.595Z,16.25
2022-10-17T04:52:39.865Z,16.22
2022-10-17T04:55:08.917Z,16.21
2022-10-17T04:57:37.543Z,16.22
2022-10-17T05:00:06.643Z,16.19
2022-10-17T05:02:35.000Z,16.17
2022-10-17T05:05:03.328Z,16.13
2022-10-17T05:07:31.798Z,16.06
2022-10-17T05:10:00.274Z,16.00
2022-10-17T05:12:28.722Z,15.97
2022-10-17T05:14:57.356Z,15.92
2022-10-17T05:17:25.729Z,15.88
2022-10-17T05:19:56.317Z,15.85
2022-10-17T05:22:24.581Z,15.81
2022-10-17T05:24:52.910Z,15.80
2022-10-17T05:27:21.245Z,15.78
2022-10-17T05:29:49.560Z,15.77
2022-10-17T05:32:18.523Z,15.74
2022-10-17T05:34:46.840Z,15.72
2022-10-17T05:37:15.163Z,15.69
2022-10-17T05:39:45.072Z,15.67
2022-10-17T05:42:15.090Z,15.65
2022-10-17T05:44:46.281Z,15.62
2022-10-17T05:47:14.626Z,15.59
2022-10-17T05:49:48.573Z,15.56
2022-10-17T05:52:18.370Z,15.53
2022-10-17T05:54:46.785Z,15.47
2022-10-17T05:57:15.158Z,15.44
2022-10-17T05:59:43.370Z,15.37
2022-10-17T06:02:14.052Z,15.33
2022-10-17T06:04:46.519Z,15.27
2022-10-17T06:07:14.911Z,15.27
2022-10-17T06:09:43.480Z,15.26
2022-10-17T06:12:12.215Z,15.22
2022-10-17T06:14:40.455Z,15.19
2022-10-17T06:17:12.206Z,15.14
2022-10-17T06:19:43.443Z,15.13
2022-10-17T06:22:11.723Z,15.11
2022-10-17T06:24:40.108Z,15.10
2022-10-17T06:27:11.105Z,15.07
2022-10-17T06:29:41.027Z,15.05
2022-10-17T06:32:12.572Z,15.03
2022-10-17T06:34:43.318Z,15.01
2022-10-17T06:37:11.644Z,14.98
2022-10-17T06:39:40.121Z,14.95
2022-10-17T06:42:08.439Z,14.95
2022-10-17T06:44:36.759Z,14.92
2022-10-17T06:47:05.077Z,14.90
2022-10-17T06:49:38.325Z,14.89
2022-10-17T06:52:06.716Z,14.85
2022-10-17T06:54:35.155Z,14.80
2022-10-17T06:57:03.640Z,14.78
2022-10-17T06:59:31.960Z,14.74
2022-10-17T07:02:01.665Z,14.72
2022-10-17T07:04:30.290Z,14.70
2022-10-17T07:09:33.881Z,14.64
2022-10-17T07:12:02.192Z,14.62
2022-10-17T07:14:33.085Z,14.59
2022-10-17T07:17:02.362Z,14.59
2022-10-17T07:19:30.835Z,14.59
2022-10-17T07:21:59.156Z,14.62
2022-10-17T07:24:27.490Z,14.62
2022-10-17T07:26:55.800Z,14.57
2022-10-17T07:29:24.121Z,14.53
2022-10-17T07:31:53.060Z,14.48
2022-10-17T07:34:22.040Z,14.46
2022-10-17T07:36:50.336Z,14.42
2022-10-17T07:39:18.690Z,14.41
2022-10-17T07:41:47.000Z,14.35
2022-10-17T07:44:16.200Z,14.33
2022-10-17T07:46:47.479Z,14.33
2022-10-17T07:49:15.811Z,14.32
2022-10-17T07:51:44.313Z,14.29
2022-10-17T07:54:12.600Z,14.27
2022-10-17T07:56:40.910Z,14.23
2022-10-17T07:59:09.658Z,14.19
2022-10-17T08:01:38.946Z,14.16
2022-10-17T08:04:07.180Z,14.12
2022-10-17T08:06:35.750Z,14.09
2022-10-17T08:09:07.490Z,14.06
2022-10-17T08:11:37.478Z,14.03
2022-10-17T08:14:11.805Z,14.01
2022-10-17T08:16:41.665Z,14.01
2022-10-17T08:19:10.045Z,13.99
2022-10-17T08:21:39.305Z,13.93
2022-10-17T08:24:07.732Z,13.91
2022-10-17T08:26:39.248Z,13.88
2022-10-17T08:29:18.152Z,13.84
2022-10-17T08:31:48.315Z,13.81
2022-10-17T08:34:18.329Z,13.78
2022-10-17T08:36:46.557Z,13.73
2022-10-17T08:39:17.235Z,13.71
2022-10-17T08:41:50.039Z,13.69
2022-10-17T08:44:55.170Z,13.69
2022-10-17T08:47:37.393Z,13.69
2022-10-17T08:50:12.125Z,13.67
2022-10-17T08:52:49.747Z,13.66
2022-10-17T08:55:45.509Z,13.64
2022-10-17T08:58:20.733Z,13.60
2022-10-17T09:01:12.885Z,13.57
2022-10-17T09:04:03.144Z,13.53
2022-10-17T09:06:41.848Z,13.48
2022-10-17T09:09:37.494Z,13.48
2022-10-17T09:12:15.858Z,13.46
2022-10-17T09:14:59.467Z,13.43
2022-10-17T09:17:28.503Z,13.40
2022-10-17T09:20:06.042Z,13.38
2022-10-17T09:22:46.070Z,13.38
2022-10-17T09:25:18.685Z,13.37
2022-10-17T09:27:54.000Z,13.37
2022-10-17T09:30:44.820Z,13.34
2022-10-17T09:33:28.657Z,13.30
2022-10-17T09:36:30.838Z,13.27
2022-10-17T09:39:04.037Z,13.26
2022-10-17T09:41:46.489Z,13.24
2022-10-17T09:44:24.605Z,13.23
2022-10-17T09:47:04.123Z,13.20
2022-10-17T09:49:41.243Z,13.17
2022-10-17T09:52:22.679Z,13.14
2022-10-17T09:54:58.841Z,13.13
2022-10-17T09:57:27.424Z,13.12
2022-10-17T10:00:04.380Z,13.08
2022-10-17T10:02:37.235Z,13.03
2022-10-17T10:05:07.408Z,13.01
2022-10-17T10:07:39.486Z,12.99
2022-10-17T10:10:27.908Z,13.00
2022-10-17T10:13:14.839Z,12.99
2022-10-17T10:15:45.879Z,12.99
2022-10-17T10:18:37.470Z,12.96
2022-10-17T10:21:21.241Z,12.92
2022-10-17T10:24:14.630Z,12.89
2022-10-17T10:26:45.241Z,12.88
2022-10-17T10:29:29.841Z,12.87
2022-10-17T10:32:09.226Z,12.85
2022-10-17T10:34:40.569Z,12.81
2022-10-17T10:37:21.291Z,12.80
2022-10-17T10:39:57.068Z,12.80
2022-10-17T10:42:33.099Z,12.78
2022-10-17T10:48:29.369Z,12.73
2022-10-17T10:51:14.201Z,12.71
2022-10-17T10:54:00.919Z,12.67
2022-10-17T10:56:42.841Z,12.64
2022-10-17T10:59:23.110Z,12.64
2022-10-17T11:01:54.371Z,12.62
2022-10-17T11:04:38.806Z,12.61
2022-10-17T11:07:32.052Z,12.60
2022-10-17T11:10:20.280Z,12.57
2022-10-17T11:13:14.675Z,12.55
2022-10-17T11:16:09.225Z,12.56
2022-10-17T11:18:43.663Z,12.56
2022-10-17T11:21:29.772Z,12.54
2022-10-17T11:24:13.764Z,12.50
2022-10-17T11:26:55.950Z,12.47
2022-10-17T11:29:31.006Z,12.45
2022-10-17T11:32:05.414Z,12.44
2022-10-17T11:34:42.826Z,12.45
2022-10-17T11:37:34.083Z,12.47
2022-10-17T11:40:04.980Z,12.47
2022-10-17T11:42:42.680Z,12.45
2022-10-17T11:45:17.250Z,12.42
2022-10-17T11:48:02.359Z,12.41
2022-10-17T11:53:39.945Z,12.40
2022-10-17T11:56:11.491Z,12.40
2022-10-17T11:59:15.315Z,12.39
2022-10-17T12:01:57.454Z,12.36
2022-10-17T12:05:03.902Z,12.35
2022-10-17T12:07:53.826Z,12.34
2022-10-17T12:10:48.934Z,12.33
2022-10-17T12:13:29.079Z,12.33
2022-10-17T12:16:23.011Z,12.27
2022-10-17T12:19:31.800Z,12.26
2022-10-17T12:22:13.884Z,12.31
2022-10-17T12:24:46.825Z,12.31
2022-10-17T12:27:30.654Z,12.29
2022-10-17T12:30:27.982Z,12.25
2022-10-17T12:33:12.299Z,12.24
2022-10-17T12:35:40.852Z,12.22
2022-10-17T12:38:21.090Z,12.18
2022-10-17T12:40:51.745Z,12.14
2022-10-17T12:43:19.935Z,12.13
2022-10-17T12:45:57.993Z,12.14
2022-10-17T12:48:35.414Z,12.14
2022-10-17T12:54:14.680Z,12.11
2022-10-17T12:56:49.047Z,12.10
2022-10-17T12:59:29.429Z,12.09
2022-10-17T13:02:03.268Z,12.08
2022-10-17T13:04:33.078Z,12.05
2022-10-17T13:07:02.356Z,12.04
2022-10-17T13:09:44.020Z,12.03
2022-10-17T13:12:28.316Z,12.01
2022-10-17T13:14:58.145Z,12.00
2022-10-17T13:17:31.802Z,11.95
2022-10-17T13:20:00.389Z,11.91
2022-10-17T13:22:32.641Z,11.92
2022-10-17T13:25:17.194Z,11.91
2022-10-17T13:27:46.025Z,11.91
2022-10-17T13:30:36.284Z,11.91
2022-10-17T13:33:05.349Z,11.89
2022-10-17T13:35:59.319Z,11.89
2022-10-17T13:38:34.815Z,11.87
2022-10-17T13:41:34.771Z,11.85
2022-10-17T13:44:08.175Z,11.82
2022-10-17T13:46:40.263Z,11.83
2022-10-17T13:49:35.329Z,11.83
2022-10-17T13:52:06.604Z,11.83
2022-10-17T13:54:42.756Z,11.85
2022-10-17T13:57:22.359Z,11.87
2022-10-17T14:00:08.576Z,11.86
2022-10-17T14:02:42.521Z,11.82
2022-10-17T14:05:19.467Z,11.78
2022-10-17T14:08:21.846Z,11.73
2022-10-17T14:10:49.760Z,11.68
2022-10-17T14:13:30.978Z,11.64
2022-10-17T14:16:06.945Z,11.63
2022-10-17T14:18:39.836Z,11.64
2022-10-17T14:21:34.420Z,11.65
2022-10-17T14:24:15.167Z,11.65
2022-10-17T14:27:01.889Z,11.66
2022-10-17T14:29:32.442Z,11.66
2022-10-17T14:32:11.954Z,11.66
2022-10-17T14:34:42.764Z,11.66
2022-10-17T14:37:41.025Z,11.67
2022-10-17T14:40:17.407Z,11.70
2022-10-17T14:42:46.837Z,11.71
2022-10-17T14:45:29.568Z,11.72
2022-10-17T14:48:07.820Z,11.74
2022-10-17T14:50:37.141Z,11.77
2022-10-17T14:53:21.960Z,11.78
2022-10-17T14:55:59.000Z,11.80
2022-10-17T14:58:34.631Z,11.83
2022-10-17T15:01:03.800Z,11.87
2022-10-17T15:03:32.265Z,11.90
2022-10-17T15:06:18.805Z,11.96
2022-10-17T15:08:47.634Z,12.00
2022-10-17T15:11:15.958Z,12.02
2022-10-17T15:13:45.707Z,12.07
2022-10-17T15:16:21.804Z,12.14
2022-10-17T15:18:50.824Z,12.22
2022-10-17T15:21:39.276Z,12.28
2022-10-17T15:24:09.085Z,12.36
2022-10-17T15:26:37.364Z,12.44
2022-10-17T15:29:06.386Z,12.54
2022-10-17T15:31:34.935Z,12.63
2022-10-17T15:34:03.324Z,12.73
2022-10-17T15:36:43.004Z,12.84
2022-10-17T15:39:11.650Z,12.97
2022-10-17T15:41:39.899Z,13.04
2022-10-17T15:44:08.444Z,13.14
2022-10-17T15:46:37.414Z,13.23
2022-10-17T15:49:10.688Z,13.29
2022-10-17T15:51:39.479Z,13.40
2022-10-17T15:54:08.104Z,13.50
2022-10-17T15:56:44.370Z,13.58
2022-10-17T15:59:16.597Z,13.65
2022-10-17T16:01:49.559Z,13.71
2022-10-17T16:04:19.484Z,13.80
2022-10-17T16:06:47.799Z,13.89
2022-10-17T16:09:16.124Z,13.97
2022-10-17T16:11:45.401Z,14.04
2022-10-17T16:14:19.000Z,14.13
2022-10-17T16:16:47.311Z,14.22
2022-10-17T16:19:21.042Z,14.29
2022-10-17T16:21:49.330Z,14.36
2022-10-17T16:24:18.836Z,14.45
2022-10-17T16:26:47.124Z,14.55
2022-10-17T16:29:15.440Z,14.64
2022-10-17T16:31:46.325Z,14.71
2022-10-17T16:34:16.758Z,14.80
2022-10-17T16:36:45.106Z,14.90
2022-10-17T16:39:13.396Z,14.98
2022-10-17T16:41:41.725Z,15.05
2022-10-17T16:44:15.474Z,15.16
2022-10-17T16:46:43.924Z,15.25
2022-10-17T16:49:13.243Z,15.36
2022-10-17T16:51:41.563Z,15.46
2022-10-17T16:54:10.849Z,15.54
2022-10-17T16:56:39.200Z,15.67
2022-10-17T16:59:07.444Z,15.79
2022-10-17T17:01:35.801Z,15.89
2022-10-17T17:04:05.499Z,16.01
2022-10-17T17:06:33.913Z,16.15
2022-10-17T17:09:02.483Z,16.26
2022-10-17T17:11:30.840Z,16.38
2022-10-17T17:14:02.201Z,16.46
2022-10-17T17:16:33.205Z,16.53
2022-10-17T17:19:05.409Z,16.67
2022-10-17T17:21:37.662Z,16.83
2022-10-17T17:24:06.397Z,16.96
2022-10-17T17:26:40.125Z,17.08
2022-10-17T17:29:13.245Z,17.22
2022-10-17T17:31:44.615Z,17.26
2022-10-17T17:34:15.664Z,17.37
2022-10-17T17:36:46.685Z,17.51
2022-10-17T17:39:16.712Z,17.60
2022-10-17T17:41:46.621Z,17.73
2022-10-17T17:44:16.964Z,17.84
2022-10-17T17:46:48.415Z,17.92
2022-10-17T17:49:16.754Z,17.99
2022-10-17T17:51:47.486Z,18.03
2022-10-17T17:54:16.266Z,18.11
2022-10-17T17:56:44.599Z,18.17
2022-10-17T17:59:17.065Z,18.26
2022-10-17T18:01:45.430Z,18.35
2022-10-17T18:04:14.170Z,18.38
2022-10-17T18:06:42.665Z,18.46
2022-10-17T18:09:12.026Z,18.55
2022-10-17T18:11:40.440Z,18.62
2022-10-17T18:14:12.446Z,18.73
2022-10-17T18:16:41.546Z,18.82
2022-10-17T18:19:11.958Z,18.86
2022-10-17T18:21:40.424Z,18.91
2022-10-17T18:24:09.240Z,18.97
2022-10-17T18:26:38.365Z,19.06
2022-10-17T18:29:06.815Z,19.10
2022-10-17T18:31:38.521Z,19.12
2022-10-17T18:34:07.266Z,19.13
2022-10-17T18:36:38.204Z,19.17
2022-10-17T18:39:07.071Z,19.17
2022-10-17T18:41:35.486Z,19.10
2022-10-17T18:44:04.222Z,19.14
2022-10-17T18:46:41.566Z,19.19
2022-10-17T18:49:15.475Z,19.27
2022-10-17T18:51:44.125Z,19.33
2022-10-17T18:54:22.151Z,19.36
2022-10-17T18:56:57.620Z,19.46
2022-10-17T18:59:25.846Z,19.43
2022-10-17T19:01:54.173Z,19.51
2022-10-17T19:04:22.599Z,19.57
2022-10-17T19:06:53.060Z,19.62
2022-10-17T19:09:21.345Z,19.74
2022-10-17T19:11:49.580Z,19.83
2022-10-17T19:14:17.975Z,19.88
2022-10-17T19:16:49.090Z,19.95
2022-10-17T19:19:27.461Z,20.09
2022-10-17T19:21:55.791Z,20.19
2022-10-17T19:24:28.702Z,20.29
2022-10-17T19:27:03.473Z,20.31
2022-10-17T19:29:34.840Z,20.36
2022-10-17T19:32:03.635Z,20.44
2022-10-17T19:34:36.227Z,20.53
2022-10-17T19:37:04.801Z,20.61
2022-10-17T19:39:33.900Z,20.74
2022-10-17T19:42:06.019Z,20.78
2022-10-17T19:44:38.198Z,20.84
2022-10-17T19:47:06.455Z,20.94
2022-10-17T19:49:34.725Z,20.92
2022-10-17T19:52:03.159Z,20.98
2022-10-17T19:54:31.623Z,21.10
2022-10-17T19:56:59.880Z,21.20
2022-10-17T19:59:28.200Z,21.31
2022-10-17T20:01:56.563Z,21.38
2022-10-17T20:04:28.270Z,21.48
2022-10-17T20:07:03.338Z,21.61
2022-10-17T20:09:31.805Z,21.63
2022-10-17T20:12:00.122Z,21.62
2022-10-17T20:14:28.606Z,21.65
2022-10-17T20:16:56.970Z,21.70
2022-10-17T20:19:25.341Z,21.76
2022-10-17T20:21:56.600Z,21.81
2022-10-17T20:24:24.850Z,21.89
2022-10-17T20:26:53.183Z,22.02
2022-10-17T20:29:25.076Z,22.11
2022-10-17T20:31:53.411Z,22.22
2022-10-17T20:34:21.804Z,22.29
2022-10-17T20:36:50.354Z,22.37
2022-10-17T20:39:20.910Z,22.46
2022-10-17T20:41:49.244Z,22.49
2022-10-17T20:44:17.575Z,22.52
2022-10-17T20:47:00.553Z,22.58
2022-10-17T20:49:30.065Z,22.66
2022-10-17T20:51:58.571Z,22.72
2022-10-17T20:54:28.705Z,22.83
2022-10-17T20:57:02.615Z,22.89
2022-10-17T20:59:35.983Z,22.98
2022-10-17T21:02:05.798Z,23.03
2022-10-17T21:04:46.047Z,23.19
2022-10-17T21:07:15.971Z,23.33
2022-10-17T21:09:44.570Z,23.43
2022-10-17T21:12:18.149Z,23.62
2022-10-17T21:14:54.519Z,23.77
2022-10-17T21:17:22.797Z,23.94
2022-10-17T21:19:51.065Z,24.08
2022-10-17T21:22:19.623Z,24.20
2022-10-17T21:24:47.929Z,24.30
2022-10-17T21:27:18.969Z,24.32
2022-10-17T21:29:47.320Z,24.36
2022-10-17T21:32:26.528Z,24.49
2022-10-17T21:35:03.975Z,24.66
2022-10-17T21:37:32.281Z,24.81
2022-10-17T21:40:00.601Z,24.97
2022-10-17T21:42:31.918Z,25.12
2022-10-17T21:45:00.440Z,25.34
2022-10-17T21:47:30.598Z,25.53
2022-10-17T21:49:59.635Z,25.67
2022-10-17T21:52:30.688Z,25.74
2022-10-17T21:54:59.316Z,25.86
2022-10-17T21:57:28.000Z,25.86
2022-10-17T21:59:56.285Z,25.97
2022-10-17T22:02:24.580Z,26.04
2022-10-17T22:04:52.885Z,26.08
2022-10-17T22:07:21.242Z,26.20
2022-10-17T22:09:49.569Z,26.38
2022-10-17T22:12:17.795Z,26.60
2022-10-17T22:14:46.186Z,26.72
2022-10-17T22:17:14.598Z,26.81
2022-10-17T22:19:42.984Z,26.82
2022-10-17T22:22:11.244Z,26.68
2022-10-17T22:24:39.640Z,26.70
2022-10-17T22:27:08.120Z,26.74
2022-10-17T22:29:36.677Z,26.61
2022-10-17T22:32:04.935Z,26.47
2022-10-17T22:34:33.253Z,26.40
2022-10-17T22:37:01.747Z,26.32
2022-10-17T22:39:31.925Z,26.31
2022-10-17T22:42:00.174Z,26.30
2022-10-17T22:44:28.450Z,26.29
2022-10-17T22:46:57.336Z,26.13
2022-10-17T22:49:25.704Z,25.95
2022-10-17T22:51:54.361Z,25.89
2022-10-17T22:54:22.630Z,25.71
2022-10-17T22:56:51.300Z,25.48
2022-10-17T22:59:19.816Z,25.28
2022-10-17T23:01:48.143Z,25.13
2022-10-17T23:04:16.567Z,24.90
2022-10-17T23:06:44.875Z,24.66
2022-10-17T23:09:15.842Z,24.46
2022-10-17T23:11:44.161Z,24.31
2022-10-17T23:14:12.730Z,24.15
2022-10-17T23:16:41.064Z,23.98
2022-10-17T23:19:09.406Z,23.84
2022-10-17T23:21:37.658Z,23.72
2022-10-17T23:24:06.355Z,23.62
2022-10-17T23:26:34.680Z,23.54
2022-10-17T23:29:05.473Z,23.47
2022-10-17T23:31:33.777Z,23.39
2022-10-17T23:34:02.169Z,23.27
2022-10-17T23:38:59.320Z,23.09
2022-10-17T23:41:27.969Z,23.06
2022-10-17T23:43:56.279Z,23.00
2022-10-17T23:46:24.726Z,22.91
2022-10-17T23:48:53.085Z,22.87
2022-10-17T23:51:22.784Z,22.85
2022-10-17T23:53:51.162Z,22.81
2022-10-17T23:56:19.810Z,22.76
2022-10-17T23:58:48.448Z,22.70
